createdAt,value
2022-09-22T00:00:58.554Z,7.77
2022-09-22T00:03:25.939Z,7.72
2022-09-22T00:09:40.990Z,7.64
2022-09-22T00:12:07.597Z,7.64
2022-09-22T00:14:34.306Z,7.59
2022-09-22T00:17:01.423Z,7.58
2022-09-22T00:19:34.196Z,7.53
2022-09-22T00:22:00.711Z,7.59
2022-09-22T00:24:28.353Z,7.71
2022-09-22T00:26:57.530Z,7.72
2022-09-22T00:29:27.915Z,7.75
2022-09-22T00:31:54.927Z,7.75
2022-09-22T00:34:23.915Z,7.57
2022-09-22T00:36:50.868Z,7.54
2022-09-22T00:39:18.363Z,7.47
2022-09-22T00:41:47.741Z,7.48
2022-09-22T00:44:25.923Z,7.51
2022-09-22T00:47:24.675Z,7.54
2022-09-22T00:49:58.529Z,7.51
2022-09-22T00:52:37.153Z,7.44
2022-09-22T00:55:09.127Z,7.43
2022-09-22T00:57:38.560Z,7.51
2022-09-22T01:00:07.699Z,7.56
2022-09-22T01:02:34.437Z,7.57
2022-09-22T01:05:01.115Z,7.62
2022-09-22T01:07:29.661Z,7.66
2022-09-22T01:09:56.426Z,7.69
2022-09-22T01:12:24.387Z,7.68
2022-09-22T01:15:27.825Z,7.66
2022-09-22T01:18:24.752Z,7.63
2022-09-22T01:21:20.387Z,7.60
2022-09-22T01:24:09.812Z,7.63
2022-09-22T01:26:57.722Z,7.64
2022-09-22T01:29:45.855Z,7.61
2022-09-22T01:32:45.848Z,7.60
2022-09-22T01:35:26.154Z,7.59
2022-09-22T01:37:58.330Z,7.60
2022-09-22T01:40:39.246Z,7.51
2022-09-22T01:43:36.140Z,7.49
2022-09-22T01:46:09.444Z,7.64
2022-09-22T01:48:40.380Z,7.66
2022-09-22T01:51:17.076Z,7.58
2022-09-22T01:53:52.084Z,7.53
2022-09-22T01:56:21.120Z,7.53
2022-09-22T01:58:55.017Z,7.39
2022-09-22T02:01:51.427Z,7.31
2022-09-22T02:04:25.591Z,7.36
2022-09-22T02:07:00.960Z,7.33
2022-09-22T02:09:30.741Z,7.25
2022-09-22T02:11:58.647Z,7.30
2022-09-22T02:14:25.621Z,7.26
2022-09-22T02:16:54.161Z,7.33
2022-09-22T02:19:37.637Z,7.34
2022-09-22T02:22:04.900Z,7.25
2022-09-22T02:24:39.680Z,7.35
2022-09-22T02:27:26.922Z,7.35
2022-09-22T02:30:01.819Z,7.40
2022-09-22T02:32:30.320Z,7.42
2022-09-22T02:34:57.229Z,7.39
2022-09-22T02:37:43.939Z,7.37
2022-09-22T02:40:15.351Z,7.35
2022-09-22T02:42:47.847Z,7.26
2022-09-22T02:45:32.810Z,7.32
2022-09-22T02:48:04.303Z,7.26
2022-09-22T02:50:33.443Z,7.25
2022-09-22T02:53:10.840Z,7.24
2022-09-22T02:55:37.199Z,7.13
2022-09-22T02:58:03.696Z,7.19
2022-09-22T03:00:31.199Z,7.24
2022-09-22T03:02:57.526Z,7.12
2022-09-22T03:05:23.863Z,7.11
2022-09-22T03:07:50.185Z,7.10
2022-09-22T03:10:16.598Z,7.09
2022-09-22T03:13:09.135Z,7.11
2022-09-22T03:15:30.493Z,7.08
2022-09-22T03:17:57.050Z,7.13
2022-09-22T03:20:23.437Z,7.16
2022-09-22T03:22:49.760Z,7.19
2022-09-22T03:25:16.205Z,7.15
2022-09-22T03:27:42.591Z,7.13
2022-09-22T03:30:09.976Z,7.17
2022-09-22T03:32:36.717Z,7.20
2022-09-22T03:35:03.733Z,7.10
2022-09-22T03:37:30.036Z,7.04
2022-09-22T03:39:56.291Z,7.02
2022-09-22T03:42:22.590Z,7.02
2022-09-22T03:44:48.899Z,6.96
2022-09-22T03:47:15.208Z,7.00
2022-09-22T03:49:41.502Z,6.94
2022-09-22T03:52:07.811Z,6.93
2022-09-22T03:54:35.120Z,6.87
2022-09-22T03:57:01.468Z,6.88
2022-09-22T03:59:27.763Z,6.86
2022-09-22T04:01:58.085Z,6.83
2022-09-22T04:04:24.713Z,6.78
2022-09-22T04:06:51.055Z,6.79
2022-09-22T04:09:18.330Z,6.73
2022-09-22T04:11:44.989Z,6.71
2022-09-22T04:14:11.313Z,6.69
2022-09-22T04:16:38.549Z,6.71
2022-09-22T04:19:05.003Z,6.70
2022-09-22T04:21:32.048Z,6.67
2022-09-22T04:23:58.467Z,6.70
2022-09-22T04:26:24.799Z,6.66
2022-09-22T04:28:51.249Z,6.76
2022-09-22T04:31:17.677Z,6.70
2022-09-22T04:33:44.320Z,6.75
2022-09-22T04:36:10.688Z,6.78
2022-09-22T04:38:37.019Z,6.70
2022-09-22T04:41:03.396Z,6.65
2022-09-22T04:43:29.714Z,6.57
2022-09-22T04:45:56.065Z,6.57
2022-09-22T04:48:22.570Z,6.57
2022-09-22T04:50:48.891Z,6.58
2022-09-22T04:53:15.440Z,6.54
2022-09-22T04:55:41.724Z,6.53
2022-09-22T04:58:09.363Z,6.55
2022-09-22T05:00:35.694Z,6.55
2022-09-22T05:03:08.457Z,6.51
2022-09-22T05:05:35.972Z,6.48
2022-09-22T05:08:02.447Z,6.50
2022-09-22T05:10:32.092Z,6.54
2022-09-22T05:12:58.971Z,6.56
2022-09-22T05:15:25.633Z,6.52
2022-09-22T05:17:53.754Z,6.59
2022-09-22T05:20:21.108Z,6.55
2022-09-22T05:22:47.528Z,6.48
2022-09-22T05:25:16.367Z,6.46
2022-09-22T05:27:47.037Z,6.49
2022-09-22T05:30:13.628Z,6.45
2022-09-22T05:32:45.100Z,6.54
2022-09-22T05:35:12.717Z,6.41
2022-09-22T05:37:39.016Z,6.50
2022-09-22T05:40:07.510Z,6.40
2022-09-22T05:42:34.198Z,6.46
2022-09-22T05:45:00.482Z,6.49
2022-09-22T05:47:26.767Z,6.50
2022-09-22T05:49:53.056Z,6.53
2022-09-22T05:52:19.352Z,6.53
2022-09-22T05:54:45.768Z,6.54
2022-09-22T05:57:12.053Z,6.58
2022-09-22T05:59:38.345Z,6.61
2022-09-22T06:02:23.724Z,6.66
2022-09-22T06:04:52.621Z,6.71
2022-09-22T06:07:23.952Z,6.72
2022-09-22T06:09:50.798Z,6.77
2022-09-22T06:12:18.287Z,6.84
2022-09-22T06:14:44.685Z,6.94
2022-09-22T06:17:12.384Z,6.98
2022-09-22T06:19:39.764Z,7.11
2022-09-22T06:22:08.043Z,7.21
2022-09-22T06:24:34.464Z,7.24
2022-09-22T06:27:00.763Z,7.32
2022-09-22T06:29:28.265Z,7.39
2022-09-22T06:31:54.574Z,7.54
2022-09-22T06:34:21.048Z,7.48
2022-09-22T06:36:47.339Z,7.66
2022-09-22T06:39:14.180Z,7.63
2022-09-22T06:41:40.962Z,7.83
2022-09-22T06:44:08.884Z,7.93
2022-09-22T06:46:35.256Z,7.96
2022-09-22T06:49:02.447Z,7.99
2022-09-22T06:51:32.791Z,7.97
2022-09-22T06:54:01.866Z,8.10
2022-09-22T06:56:28.384Z,8.23
2022-09-22T06:59:09.993Z,8.29
2022-09-22T07:01:37.197Z,8.35
2022-09-22T07:06:56.648Z,8.54
2022-09-22T07:09:23.372Z,8.58
2022-09-22T07:11:50.132Z,8.67
2022-09-22T07:14:16.435Z,8.80
2022-09-22T07:16:43.762Z,8.86
2022-09-22T07:19:10.374Z,8.98
2022-09-22T07:21:37.577Z,9.04
2022-09-22T07:24:05.381Z,9.32
2022-09-22T07:26:34.427Z,9.36
2022-09-22T07:29:03.557Z,9.54
2022-09-22T07:31:31.914Z,9.71
2022-09-22T07:34:01.852Z,9.70
2022-09-22T07:36:31.016Z,9.86
2022-09-22T07:39:02.880Z,9.96
2022-09-22T07:41:31.746Z,10.14
2022-09-22T07:44:22.922Z,10.22
2022-09-22T07:46:49.350Z,10.42
2022-09-22T07:49:17.473Z,10.61
2022-09-22T07:51:43.753Z,10.69
2022-09-22T07:54:10.155Z,10.77
2022-09-22T07:56:41.943Z,10.99
2022-09-22T07:59:10.890Z,11.09
2022-09-22T08:01:41.906Z,11.35
2022-09-22T08:04:10.807Z,11.37
2022-09-22T08:06:37.147Z,11.54
2022-09-22T08:09:04.866Z,11.82
2022-09-22T08:11:31.456Z,11.79
2022-09-22T08:14:00.147Z,11.93
2022-09-22T08:16:32.155Z,12.05
2022-09-22T08:19:10.417Z,12.20
2022-09-22T08:21:40.761Z,12.14
2022-09-22T08:24:15.476Z,12.42
2022-09-22T08:26:48.131Z,12.49
2022-09-22T08:29:14.735Z,12.59
2022-09-22T08:31:42.211Z,12.64
2022-09-22T08:34:09.363Z,12.80
2022-09-22T08:36:37.364Z,12.97
2022-09-22T08:39:05.008Z,13.07
2022-09-22T08:41:38.169Z,13.11
2022-09-22T08:44:09.235Z,13.44
2022-09-22T08:46:41.503Z,13.49
2022-09-22T08:49:48.895Z,13.47
2022-09-22T08:52:48.857Z,13.62
2022-09-22T08:55:22.312Z,13.94
2022-09-22T08:58:14.769Z,13.82
2022-09-22T09:00:48.488Z,14.21
2022-09-22T09:03:28.272Z,14.34
2022-09-22T09:06:25.008Z,14.49
2022-09-22T09:09:21.872Z,14.52
2022-09-22T09:11:50.786Z,14.61
2022-09-22T09:14:35.528Z,14.81
2022-09-22T09:17:08.560Z,14.73
2022-09-22T09:19:40.536Z,15.14
2022-09-22T09:22:29.450Z,15.41
2022-09-22T09:27:49.803Z,15.47
2022-09-22T09:30:19.739Z,15.42
2022-09-22T09:33:11.342Z,15.77
2022-09-22T09:35:45.093Z,16.13
2022-09-22T09:38:14.892Z,16.00
2022-09-22T09:40:41.711Z,16.00
2022-09-22T09:43:08.799Z,16.08
2022-09-22T09:45:51.195Z,15.90
2022-09-22T09:48:34.690Z,16.41
2022-09-22T09:51:05.519Z,16.29
2022-09-22T09:53:41.064Z,16.68
2022-09-22T09:56:25.052Z,16.86
2022-09-22T09:59:14.248Z,16.98
2022-09-22T10:01:43.130Z,17.24
2022-09-22T10:04:19.533Z,17.24
2022-09-22T10:06:46.750Z,17.33
2022-09-22T10:09:24.864Z,17.56
2022-09-22T10:12:01.707Z,17.69
2022-09-22T10:14:34.708Z,17.82
2022-09-22T10:17:01.109Z,17.76
2022-09-22T10:19:30.462Z,17.70
2022-09-22T10:22:17.188Z,17.93
2022-09-22T10:24:57.152Z,18.20
2022-09-22T10:27:25.521Z,18.16
2022-09-22T10:30:10.932Z,18.68
2022-09-22T10:32:40.324Z,18.33
2022-09-22T10:35:28.595Z,18.80
2022-09-22T10:38:09.155Z,18.70
2022-09-22T10:40:39.126Z,18.94
2022-09-22T10:43:13.919Z,18.86
2022-09-22T10:45:53.277Z,18.87
2022-09-22T10:48:33.659Z,18.96
2022-09-22T10:51:21.732Z,18.91
2022-09-22T10:54:14.673Z,18.96
2022-09-22T10:56:49.382Z,18.96
2022-09-22T10:59:20.538Z,19.00
2022-09-22T11:02:08.636Z,19.19
2022-09-22T11:04:47.303Z,19.31
2022-09-22T11:07:47.731Z,19.38
2022-09-22T11:10:42.063Z,19.78
2022-09-22T11:13:35.805Z,19.81
2022-09-22T11:16:23.669Z,19.96
2022-09-22T11:19:02.616Z,19.83
2022-09-22T11:21:47.009Z,19.79
2022-09-22T11:24:39.186Z,19.64
2022-09-22T11:27:16.651Z,19.90
2022-09-22T11:30:11.309Z,20.02
2022-09-22T11:33:05.715Z,20.16
2022-09-22T11:35:49.637Z,20.32
2022-09-22T11:38:16.013Z,19.89
2022-09-22T11:41:00.892Z,20.32
2022-09-22T11:43:27.253Z,20.56
2022-09-22T11:46:21.678Z,20.71
2022-09-22T11:49:20.299Z,20.75
2022-09-22T11:52:07.152Z,20.55
2022-09-22T11:55:00.391Z,20.57
2022-09-22T11:57:32.419Z,20.46
2022-09-22T12:00:04.969Z,20.61
2022-09-22T12:03:04.773Z,20.51
2022-09-22T12:05:35.292Z,20.80
2022-09-22T12:08:07.029Z,20.70
2022-09-22T12:10:37.926Z,20.95
2022-09-22T12:13:11.367Z,20.59
2022-09-22T12:15:59.222Z,20.63
2022-09-22T12:18:37.834Z,20.51
2022-09-22T12:21:22.681Z,20.69
2022-09-22T12:23:51.482Z,20.49
2022-09-22T12:26:31.115Z,20.34
2022-09-22T12:28:59.585Z,20.49
2022-09-22T12:31:42.217Z,20.47
2022-09-22T12:34:23.724Z,20.46
2022-09-22T12:36:59.824Z,20.53
2022-09-22T12:39:32.332Z,20.45
2022-09-22T12:42:01.384Z,20.42
2022-09-22T12:44:53.718Z,20.44
2022-09-22T12:47:33.346Z,20.33
2022-09-22T12:50:02.922Z,20.14
2022-09-22T12:52:41.108Z,20.35
2022-09-22T12:55:29.048Z,20.36
2022-09-22T12:57:57.449Z,20.38
2022-09-22T13:00:35.582Z,20.23
2022-09-22T13:03:24.772Z,20.17
2022-09-22T13:06:05.239Z,19.86
2022-09-22T13:08:31.516Z,20.04
2022-09-22T13:11:01.534Z,20.17
2022-09-22T13:13:30.812Z,19.62
2022-09-22T13:16:01.839Z,19.89
2022-09-22T13:18:38.796Z,19.70
2022-09-22T13:21:14.375Z,19.65
2022-09-22T13:24:00.158Z,19.85
2022-09-22T13:26:40.902Z,19.63
2022-09-22T13:29:16.339Z,19.72
2022-09-22T13:31:48.483Z,19.31
2022-09-22T13:34:33.176Z,19.38
2022-09-22T13:37:12.086Z,19.62
2022-09-22T13:39:47.119Z,19.34
2022-09-22T13:42:24.347Z,19.39
2022-09-22T13:45:02.566Z,19.59
2022-09-22T13:47:29.705Z,19.42
2022-09-22T13:50:05.080Z,19.33
2022-09-22T13:52:34.727Z,19.35
2022-09-22T13:55:09.706Z,19.16
2022-09-22T13:57:37.683Z,19.10
2022-09-22T14:00:06.319Z,19.26
2022-09-22T14:02:32.846Z,19.17
2022-09-22T14:05:04.371Z,19.06
2022-09-22T14:07:38.325Z,19.04
2022-09-22T14:10:16.451Z,19.00
2022-09-22T14:12:42.760Z,19.07
2022-09-22T14:15:40.152Z,19.00
2022-09-22T14:18:17.047Z,19.08
2022-09-22T14:20:44.359Z,19.24
2022-09-22T14:23:25.853Z,18.96
2022-09-22T14:25:52.246Z,19.10
2022-09-22T14:28:23.410Z,19.12
2022-09-22T14:30:50.149Z,19.05
2022-09-22T14:33:22.748Z,19.07
2022-09-22T14:35:52.020Z,19.10
2022-09-22T14:38:22.815Z,18.93
2022-09-22T14:40:57.753Z,18.67
2022-09-22T14:43:33.212Z,18.70
2022-09-22T14:46:04.937Z,18.58
2022-09-22T14:48:36.363Z,18.55
2022-09-22T14:51:12.997Z,18.56
2022-09-22T14:53:53.472Z,18.61
2022-09-22T14:56:27.568Z,18.49
2022-09-22T14:59:27.508Z,18.52
2022-09-22T15:02:14.781Z,18.60
2022-09-22T15:04:50.179Z,18.54
2022-09-22T15:07:26.731Z,18.46
2022-09-22T15:09:56.928Z,18.39
2022-09-22T15:12:49.846Z,18.31
2022-09-22T15:15:17.833Z,18.36
2022-09-22T15:18:05.629Z,18.41
2022-09-22T15:20:42.678Z,18.45
2022-09-22T15:23:28.252Z,18.39
2022-09-22T15:25:55.557Z,18.27
2022-09-22T15:28:26.906Z,18.41
2022-09-22T15:30:53.626Z,18.31
2022-09-22T15:33:21.440Z,18.21
2022-09-22T15:35:52.676Z,18.23
2022-09-22T15:38:27.511Z,18.19
2022-09-22T15:40:54.303Z,18.24
2022-09-22T15:43:23.248Z,18.13
2022-09-22T15:45:53.615Z,18.24
2022-09-22T15:48:30.839Z,18.18
2022-09-22T15:50:59.861Z,18.01
2022-09-22T15:53:26.759Z,18.03
2022-09-22T15:55:54.340Z,17.94
2022-09-22T15:58:25.547Z,17.96
2022-09-22T16:00:55.408Z,17.92
2022-09-22T16:03:23.665Z,17.88
2022-09-22T16:06:05.279Z,17.85
2022-09-22T16:08:42.026Z,17.76
2022-09-22T16:11:14.894Z,17.77
2022-09-22T16:13:41.637Z,17.72
2022-09-22T16:16:10.256Z,17.72
2022-09-22T16:18:39.152Z,17.72
2022-09-22T16:21:07.121Z,17.69
2022-09-22T16:23:34.057Z,17.66
2022-09-22T16:26:00.404Z,17.54
2022-09-22T16:28:26.777Z,17.47
2022-09-22T16:30:53.146Z,17.41
2022-09-22T16:33:19.564Z,17.37
2022-09-22T16:35:45.904Z,17.34
2022-09-22T16:38:12.483Z,17.28
2022-09-22T16:40:38.972Z,17.25
2022-09-22T16:43:07.603Z,17.15
2022-09-22T16:45:52.830Z,17.06
2022-09-22T16:48:19.174Z,17.02
2022-09-22T16:50:46.579Z,17.01
2022-09-22T16:53:14.167Z,16.89
2022-09-22T16:55:48.125Z,16.92
2022-09-22T16:58:14.649Z,16.85
2022-09-22T17:00:41.014Z,16.84
2022-09-22T17:03:07.322Z,16.72
2022-09-22T17:05:34.217Z,16.60
2022-09-22T17:08:05.926Z,16.63
2022-09-22T17:10:35.680Z,16.55
2022-09-22T17:13:04.650Z,16.43
2022-09-22T17:15:35.597Z,16.44
2022-09-22T17:18:05.089Z,16.34
2022-09-22T17:20:31.452Z,16.27
2022-09-22T17:22:57.828Z,16.21
2022-09-22T17:25:27.800Z,16.11
2022-09-22T17:27:54.125Z,16.04
2022-09-22T17:30:20.468Z,15.93
2022-09-22T17:32:47.224Z,15.85
2022-09-22T17:35:13.585Z,15.72
2022-09-22T17:37:39.886Z,15.73
2022-09-22T17:40:06.605Z,15.65
2022-09-22T17:42:37.561Z,15.55
2022-09-22T17:45:07.685Z,15.44
2022-09-22T17:47:52.809Z,15.37
2022-09-22T17:50:37.850Z,15.28
2022-09-22T17:53:22.605Z,15.22
2022-09-22T17:55:48.897Z,15.19
2022-09-22T17:58:15.189Z,15.11
2022-09-22T18:00:42.025Z,15.02
2022-09-22T18:03:08.369Z,14.95
2022-09-22T18:05:38.535Z,14.82
2022-09-22T18:08:04.842Z,14.68
2022-09-22T18:10:33.882Z,14.64
2022-09-22T18:13:01.783Z,14.54
2022-09-22T18:15:29.233Z,14.43
2022-09-22T18:17:57.763Z,14.26
2022-09-22T18:20:25.512Z,14.30
2022-09-22T18:22:51.964Z,14.17
2022-09-22T18:25:19.619Z,14.15
2022-09-22T18:27:48.165Z,14.02
2022-09-22T18:30:16.052Z,13.99
2022-09-22T18:32:42.610Z,13.94
2022-09-22T18:35:09.306Z,13.80
2022-09-22T18:37:35.645Z,13.78
2022-09-22T18:40:02.203Z,13.72
2022-09-22T18:42:32.207Z,13.62
2022-09-22T18:44:58.484Z,13.45
2022-09-22T18:47:24.948Z,13.49
2022-09-22T18:49:51.704Z,13.38
2022-09-22T18:52:22.962Z,13.32
2022-09-22T18:54:52.881Z,13.20
2022-09-22T18:57:20.632Z,13.12
2022-09-22T18:59:48.204Z,13.09
2022-09-22T19:02:15.198Z,13.01
2022-09-22T19:04:41.581Z,12.97
2022-09-22T19:07:27.057Z,12.90
2022-09-22T19:09:53.401Z,12.80
2022-09-22T19:12:21.517Z,12.84
2022-09-22T19:14:49.938Z,12.83
2022-09-22T19:17:17.800Z,12.80
2022-09-22T19:19:49.695Z,12.80
2022-09-22T19:22:16.196Z,12.83
2022-09-22T19:24:45.835Z,12.81
2022-09-22T19:27:15.016Z,12.73
2022-09-22T19:29:41.599Z,12.68
2022-09-22T19:32:08.021Z,12.65
2022-09-22T19:34:34.499Z,12.60
2022-09-22T19:37:00.868Z,12.59
2022-09-22T19:39:27.305Z,12.50
2022-09-22T19:41:54.793Z,12.40
2022-09-22T19:44:22.605Z,12.38
2022-09-22T19:46:50.187Z,12.32
2022-09-22T19:49:17.350Z,12.27
2022-09-22T19:51:43.704Z,12.25
2022-09-22T19:54:10.502Z,12.23
2022-09-22T19:56:37.294Z,12.14
2022-09-22T19:59:07.006Z,12.08
2022-09-22T20:01:36.494Z,11.97
2022-09-22T20:04:04.745Z,11.86
2022-09-22T20:06:32.684Z,11.74
2022-09-22T20:09:04.869Z,11.65
2022-09-22T20:11:38.493Z,11.56
2022-09-22T20:14:27.005Z,11.46
2022-09-22T20:17:02.608Z,11.26
2022-09-22T20:19:31.797Z,11.22
2022-09-22T20:22:19.907Z,11.17
2022-09-22T20:24:54.596Z,11.11
2022-09-22T20:27:32.702Z,11.00
2022-09-22T20:29:59.819Z,10.94
2022-09-22T20:32:28.492Z,10.94
2022-09-22T20:34:55.557Z,10.90
2022-09-22T20:37:23.085Z,10.79
2022-09-22T20:39:49.653Z,10.71
2022-09-22T20:42:16.011Z,10.65
2022-09-22T20:44:42.444Z,10.64
2022-09-22T20:47:18.737Z,10.55
2022-09-22T20:49:49.426Z,10.60
2022-09-22T20:52:19.749Z,10.40
2022-09-22T20:54:46.372Z,10.44
2022-09-22T20:57:13.965Z,10.45
2022-09-22T20:59:40.293Z,10.36
2022-09-22T21:02:07.116Z,10.36
2022-09-22T21:04:33.681Z,10.29
2022-09-22T21:07:00.004Z,10.23
2022-09-22T21:09:45.020Z,10.24
2022-09-22T21:12:13.352Z,10.19
2022-09-22T21:14:39.675Z,9.95
2022-09-22T21:17:08.656Z,10.03
2022-09-22T21:19:36.346Z,9.96
2022-09-22T21:22:03.340Z,9.93
2022-09-22T21:24:31.184Z,9.78
2022-09-22T21:26:58.065Z,9.72
2022-09-22T21:29:24.366Z,9.73
2022-09-22T21:31:50.766Z,9.70
2022-09-22T21:34:17.932Z,9.56
2022-09-22T21:36:44.281Z,9.59
2022-09-22T21:39:10.602Z,9.59
2022-09-22T21:41:37.076Z,9.52
2022-09-22T21:44:05.648Z,9.52
2022-09-22T21:46:33.130Z,9.65
2022-09-22T21:49:02.054Z,9.60
2022-09-22T21:51:32.046Z,9.62
2022-09-22T21:53:58.364Z,9.44
2022-09-22T21:56:25.867Z,9.40
2022-09-22T21:58:54.207Z,9.36
2022-09-22T22:01:20.568Z,9.35
2022-09-22T22:03:48.475Z,9.35
2022-09-22T22:06:37.840Z,9.29
2022-09-22T22:09:14.598Z,9.28
2022-09-22T22:11:44.118Z,9.27
2022-09-22T22:14:12.144Z,9.24
2022-09-22T22:16:41.768Z,9.20
2022-09-22T22:19:10.140Z,9.13
2022-09-22T22:21:36.551Z,9.17
2022-09-22T22:24:23.100Z,9.24
2022-09-22T22:27:01.154Z,9.22
2022-09-22T22:29:31.493Z,9.19
2022-09-22T22:31:58.491Z,9.10
2022-09-22T22:34:26.002Z,9.10
2022-09-22T22:36:55.645Z,9.11
2022-09-22T22:39:21.932Z,9.16
2022-09-22T22:41:53.721Z,9.11
2022-09-22T22:44:20.027Z,9.15
2022-09-22T22:46:46.540Z,9.08
2022-09-22T22:49:13.207Z,9.10
2022-09-22T22:51:40.142Z,9.13
2022-09-22T22:54:06.572Z,9.13
2022-09-22T22:56:33.142Z,9.10
2022-09-22T22:58:59.484Z,9.09
2022-09-22T23:01:28.593Z,9.07
2022-09-22T23:04:00.332Z,9.11
2022-09-22T23:06:43.615Z,9.15
2022-09-22T23:09:16.252Z,9.08
2022-09-22T23:11:43.637Z,8.98
2022-09-22T23:14:11.865Z,8.92
2022-09-22T23:16:43.547Z,8.95
2022-09-22T23:19:12.499Z,8.84
2022-09-22T23:21:38.796Z,8.76
2022-09-22T23:24:05.888Z,8.77
2022-09-22T23:26:32.468Z,8.78
2022-09-22T23:28:59.470Z,8.79
2022-09-22T23:31:26.239Z,8.87
2022-09-22T23:33:54.082Z,8.85
2022-09-22T23:36:25.210Z,8.84
2022-09-22T23:39:05.954Z,8.80
2022-09-22T23:41:34.214Z,8.82
2022-09-22T23:44:00.892Z,8.86
2022-09-22T23:46:27.818Z,8.77
2022-09-22T23:48:55.343Z,8.77
2022-09-22T23:51:21.793Z,8.69
2022-09-22T23:53:48.081Z,8.65
2022-09-22T23:56:14.397Z,8.63
2022-09-22T23:58:40.926Z,8.57
